createdAt,value
2022-12-14T00:00:30.948Z,-1.05
2022-12-14T00:03:00.923Z,-0.91
2022-12-14T00:05:30.723Z,-0.95
2022-12-14T00:08:00.544Z,-0.85
2022-12-14T00:10:30.824Z,-0.85
2022-12-14T00:13:01.115Z,-0.91
2022-12-14T00:15:31.257Z,-1.00
2022-12-14T00:18:01.525Z,-0.94
2022-12-14T00:20:31.333Z,-1.03
2022-12-14T00:23:01.213Z,-0.95
2022-12-14T00:25:31.605Z,-0.95
2022-12-14T00:28:01.635Z,-0.88
2022-12-14T00:30:31.367Z,-1.04
2022-12-14T00:33:01.104Z,-1.03
2022-12-14T00:35:30.845Z,-1.01
2022-12-14T00:38:00.562Z,-1.06
2022-12-14T00:40:30.002Z,-1.05
2022-12-14T00:42:59.753Z,-0.92
2022-12-14T00:45:29.777Z,-1.00
2022-12-14T00:47:59.538Z,-1.10
2022-12-14T00:50:29.369Z,-0.95
2022-12-14T00:52:59.092Z,-0.95
2022-12-14T00:55:28.824Z,-0.85
2022-12-14T00:57:58.556Z,-0.93
2022-12-14T01:00:28.159Z,-0.92
2022-12-14T01:02:58.188Z,-0.93
2022-12-14T01:05:27.914Z,-0.99
2022-12-14T01:07:57.834Z,-0.81
2022-12-14T01:10:27.631Z,-0.92
2022-12-14T01:12:57.727Z,-0.98
2022-12-14T01:15:27.450Z,-0.93
2022-12-14T01:17:57.178Z,-0.83
2022-12-14T01:20:26.917Z,-0.86
2022-12-14T01:22:57.373Z,-0.91
2022-12-14T01:25:27.274Z,-1.02
2022-12-14T01:27:57.301Z,-0.95
2022-12-14T01:30:26.732Z,-0.97
2022-12-14T01:32:56.469Z,-1.01
2022-12-14T01:35:26.189Z,-0.98
2022-12-14T01:37:56.206Z,-0.97
2022-12-14T01:40:25.673Z,-1.03
2022-12-14T01:42:55.715Z,-0.91
2022-12-14T01:45:25.372Z,-0.88
2022-12-14T01:48:01.024Z,-0.98
2022-12-14T01:50:31.227Z,-1.10
2022-12-14T01:53:06.319Z,-1.01
2022-12-14T01:55:41.466Z,-0.97
2022-12-14T01:58:21.827Z,-1.15
2022-12-14T02:00:56.452Z,-1.05
2022-12-14T02:03:40.851Z,-1.16
2022-12-14T02:06:17.175Z,-1.17
2022-12-14T02:08:48.786Z,-1.20
2022-12-14T02:11:21.545Z,-1.12
2022-12-14T02:13:51.284Z,-1.19
2022-12-14T02:16:20.799Z,-0.96
2022-12-14T02:18:50.533Z,-1.03
2022-12-14T02:21:23.674Z,-0.99
2022-12-14T02:24:02.356Z,-1.06
2022-12-14T02:26:55.882Z,-0.92
2022-12-14T02:29:37.531Z,-1.15
2022-12-14T02:32:33.227Z,-1.22
2022-12-14T02:35:20.616Z,-1.13
2022-12-14T02:38:05.294Z,-1.12
2022-12-14T02:40:40.906Z,-1.14
2022-12-14T02:43:13.992Z,-1.14
2022-12-14T02:45:46.509Z,-1.18
2022-12-14T02:48:37.741Z,-1.34
2022-12-14T02:51:29.626Z,-1.27
2022-12-14T02:54:05.329Z,-1.21
2022-12-14T02:56:42.612Z,-1.23
2022-12-14T02:59:14.971Z,-1.32
2022-12-14T03:01:47.205Z,-1.10
2022-12-14T03:04:17.833Z,-1.51
2022-12-14T03:06:53.485Z,-1.48
2022-12-14T03:09:23.087Z,-1.60
2022-12-14T03:12:07.650Z,-1.35
2022-12-14T03:14:43.296Z,-1.42
2022-12-14T03:17:19.837Z,-1.41
2022-12-14T03:19:58.557Z,-1.34
2022-12-14T03:22:31.267Z,-1.41
2022-12-14T03:25:04.351Z,-1.41
2022-12-14T03:27:39.810Z,-1.37
2022-12-14T03:30:23.766Z,-1.46
2022-12-14T03:32:53.101Z,-1.25
2022-12-14T03:35:31.283Z,-1.34
2022-12-14T03:38:07.085Z,-1.52
2022-12-14T03:40:45.300Z,-1.49
2022-12-14T03:43:30.546Z,-1.36
2022-12-14T03:46:18.196Z,-1.21
2022-12-14T03:48:57.141Z,-1.36
2022-12-14T03:51:41.547Z,-1.30
2022-12-14T03:54:26.497Z,-1.35
2022-12-14T03:57:04.544Z,-1.50
2022-12-14T03:59:54.513Z,-1.38
2022-12-14T04:02:30.290Z,-1.35
2022-12-14T04:05:08.895Z,-1.40
2022-12-14T04:07:53.690Z,-1.54
2022-12-14T04:10:49.567Z,-1.61
2022-12-14T04:13:39.370Z,-1.47
2022-12-14T04:16:29.953Z,-1.62
2022-12-14T04:19:03.352Z,-1.51
2022-12-14T04:21:41.764Z,-1.46
2022-12-14T04:24:54.891Z,-1.54
2022-12-14T04:27:36.375Z,-1.60
2022-12-14T04:30:09.965Z,-1.37
2022-12-14T04:32:51.832Z,-1.50
2022-12-14T04:35:36.708Z,-1.39
2022-12-14T04:40:46.158Z,-1.40
2022-12-14T04:43:18.660Z,-1.57
2022-12-14T04:46:00.226Z,-1.83
2022-12-14T04:48:44.648Z,-1.64
2022-12-14T04:51:33.615Z,-1.68
2022-12-14T04:54:21.247Z,-1.76
2022-12-14T04:56:54.323Z,-1.78
2022-12-14T04:59:25.890Z,-1.70
2022-12-14T05:02:01.629Z,-1.66
2022-12-14T05:04:47.799Z,-1.70
2022-12-14T05:07:26.065Z,-1.65
2022-12-14T05:10:13.567Z,-1.83
2022-12-14T05:13:05.597Z,-1.83
2022-12-14T05:15:43.910Z,-1.72
2022-12-14T05:18:17.328Z,-1.66
2022-12-14T05:20:48.002Z,-1.61
2022-12-14T05:23:18.738Z,-1.57
2022-12-14T05:25:49.231Z,-1.76
2022-12-14T05:28:19.110Z,-1.53
2022-12-14T05:30:49.366Z,-1.81
2022-12-14T05:33:21.277Z,-1.55
2022-12-14T05:35:51.005Z,-1.80
2022-12-14T05:38:20.441Z,-1.78
2022-12-14T05:40:50.183Z,-1.77
2022-12-14T05:43:19.902Z,-1.75
2022-12-14T05:45:49.658Z,-1.68
2022-12-14T05:48:19.370Z,-1.82
2022-12-14T05:50:49.112Z,-1.84
2022-12-14T05:53:19.366Z,-1.84
2022-12-14T05:55:53.019Z,-1.66
2022-12-14T05:58:23.034Z,-1.83
2022-12-14T06:00:52.772Z,-1.75
2022-12-14T06:03:22.787Z,-1.84
2022-12-14T06:05:52.539Z,-1.80
2022-12-14T06:08:22.653Z,-1.83
2022-12-14T06:10:52.943Z,-1.74
2022-12-14T06:13:22.966Z,-1.78
2022-12-14T06:15:52.786Z,-1.86
2022-12-14T06:18:24.117Z,-1.96
2022-12-14T06:20:54.170Z,-2.02
2022-12-14T06:23:24.017Z,-1.94
2022-12-14T06:25:56.772Z,-2.18
2022-12-14T06:28:26.509Z,-2.18
2022-12-14T06:30:57.864Z,-2.15
2022-12-14T06:33:28.116Z,-2.00
2022-12-14T06:35:58.031Z,-2.04
2022-12-14T06:38:27.684Z,-2.27
2022-12-14T06:40:57.599Z,-2.12
2022-12-14T06:43:28.384Z,-2.34
2022-12-14T06:45:58.407Z,-2.21
2022-12-14T06:48:27.815Z,-2.23
2022-12-14T06:51:02.476Z,-2.27
2022-12-14T06:53:32.653Z,-2.28
2022-12-14T06:56:13.583Z,-2.28
2022-12-14T06:58:43.473Z,-2.22
2022-12-14T07:01:16.171Z,-2.22
2022-12-14T07:03:48.617Z,-2.35
2022-12-14T07:06:19.291Z,-2.44
2022-12-14T07:08:49.993Z,-2.38
2022-12-14T07:11:19.454Z,-2.41
2022-12-14T07:13:49.266Z,-2.34
2022-12-14T07:16:21.857Z,-2.52
2022-12-14T07:18:52.328Z,-2.42
2022-12-14T07:21:22.852Z,-2.75
2022-12-14T07:23:53.510Z,-2.70
2022-12-14T07:26:26.077Z,-2.91
2022-12-14T07:28:56.354Z,-2.76
2022-12-14T07:31:28.368Z,-2.90
2022-12-14T07:34:00.281Z,-2.96
2022-12-14T07:36:32.805Z,-2.73
2022-12-14T07:39:02.371Z,-2.93
2022-12-14T07:41:32.387Z,-2.92
2022-12-14T07:44:02.436Z,-2.92
2022-12-14T07:46:32.890Z,-2.96
2022-12-14T07:49:03.452Z,-2.96
2022-12-14T07:51:36.187Z,-3.04
2022-12-14T07:54:07.722Z,-3.13
2022-12-14T07:56:39.954Z,-3.13
2022-12-14T07:59:11.665Z,-3.07
2022-12-14T08:01:42.932Z,-3.22
2022-12-14T08:04:18.775Z,-3.32
2022-12-14T08:06:49.423Z,-3.32
2022-12-14T08:09:20.189Z,-3.15
2022-12-14T08:11:50.068Z,-3.31
2022-12-14T08:14:20.365Z,-3.25
2022-12-14T08:16:51.348Z,-3.39
2022-12-14T08:19:21.520Z,-3.32
2022-12-14T08:21:51.257Z,-3.36
2022-12-14T08:24:21.268Z,-3.50
2022-12-14T08:26:51.003Z,-3.43
2022-12-14T08:29:22.255Z,-3.55
2022-12-14T08:31:52.920Z,-3.58
2022-12-14T08:34:22.686Z,-3.48
2022-12-14T08:36:52.594Z,-3.51
2022-12-14T08:39:22.712Z,-3.47
2022-12-14T08:41:52.967Z,-3.48
2022-12-14T08:44:22.419Z,-3.35
2022-12-14T08:46:52.199Z,-3.45
2022-12-14T08:49:21.656Z,-3.54
2022-12-14T08:51:51.385Z,-3.25
2022-12-14T08:54:21.135Z,-3.42
2022-12-14T08:56:51.842Z,-3.40
2022-12-14T08:59:52.223Z,-3.42
2022-12-14T09:01:53.223Z,-3.35
2022-12-14T09:04:23.066Z,-3.50
2022-12-14T09:06:54.105Z,-3.11
2022-12-14T09:09:23.918Z,-3.11
2022-12-14T09:11:53.766Z,-2.88
2022-12-14T09:14:23.332Z,-2.88
2022-12-14T09:16:53.082Z,-2.89
2022-12-14T09:19:22.834Z,-2.73
2022-12-14T09:21:52.616Z,-2.83
2022-12-14T09:24:24.001Z,-2.77
2022-12-14T09:26:53.821Z,-2.58
2022-12-14T09:29:23.861Z,-2.14
2022-12-14T09:31:54.626Z,-2.14
2022-12-14T09:34:25.290Z,-2.18
2022-12-14T09:36:55.044Z,-1.96
2022-12-14T09:39:25.571Z,-1.78
2022-12-14T09:42:17.511Z,-1.33
2022-12-14T09:45:02.046Z,-1.25
2022-12-14T09:47:43.154Z,-1.24
2022-12-14T09:50:18.423Z,-0.93
2022-12-14T09:52:53.602Z,-0.78
2022-12-14T09:55:38.539Z,-0.83
2022-12-14T09:58:29.542Z,-0.44
2022-12-14T10:01:25.217Z,-0.20
2022-12-14T10:04:14.359Z,-0.03
2022-12-14T10:06:53.084Z,-0.25
2022-12-14T10:09:43.715Z,-0.16
2022-12-14T10:12:37.124Z,0.19
2022-12-14T10:15:11.156Z,0.19
2022-12-14T10:18:01.107Z,-0.09
2022-12-14T10:20:46.289Z,-0.41
2022-12-14T10:23:22.928Z,-0.39
2022-12-14T10:25:52.041Z,-0.54
2022-12-14T10:28:36.136Z,-0.45
2022-12-14T10:31:09.257Z,-0.08
2022-12-14T10:33:42.177Z,-0.83
2022-12-14T10:36:33.361Z,-0.89
2022-12-14T10:39:05.531Z,-0.20
2022-12-14T10:41:57.795Z,-0.38
2022-12-14T10:44:30.589Z,-0.27
2022-12-14T10:47:03.579Z,-0.15
2022-12-14T10:49:45.155Z,0.05
2022-12-14T10:52:19.185Z,0.51
2022-12-14T10:54:51.967Z,0.55
2022-12-14T10:57:27.948Z,0.55
2022-12-14T11:00:08.339Z,0.54
2022-12-14T11:02:30.681Z,0.63
2022-12-14T11:05:05.106Z,0.89
2022-12-14T11:07:40.288Z,0.91
2022-12-14T11:10:19.133Z,1.00
2022-12-14T11:13:15.521Z,0.83
2022-12-14T11:15:47.746Z,0.67
2022-12-14T11:18:20.611Z,0.65
2022-12-14T11:21:05.270Z,1.12
2022-12-14T11:23:40.299Z,1.25
2022-12-14T11:26:16.307Z,1.52
2022-12-14T11:28:54.570Z,1.52
2022-12-14T11:31:32.949Z,1.63
2022-12-14T11:34:05.626Z,1.95
2022-12-14T11:36:37.947Z,1.84
2022-12-14T11:39:16.894Z,1.87
2022-12-14T11:41:52.058Z,2.03
2022-12-14T11:44:27.259Z,2.05
2022-12-14T11:47:02.445Z,2.13
2022-12-14T11:49:43.791Z,2.30
2022-12-14T11:52:21.665Z,2.30
2022-12-14T11:54:59.980Z,2.16
2022-12-14T11:57:32.741Z,1.95
2022-12-14T12:00:11.235Z,2.17
2022-12-14T12:02:50.333Z,2.51
2022-12-14T12:05:22.717Z,2.42
2022-12-14T12:07:55.520Z,2.05
2022-12-14T12:10:50.119Z,2.40
2022-12-14T12:13:27.397Z,2.48
2022-12-14T12:16:00.062Z,2.27
2022-12-14T12:18:46.508Z,2.66
2022-12-14T12:24:23.360Z,3.24
2022-12-14T12:26:56.140Z,3.97
2022-12-14T12:29:34.752Z,3.74
2022-12-14T12:32:28.242Z,3.94
2022-12-14T12:35:11.286Z,4.14
2022-12-14T12:37:44.822Z,4.25
2022-12-14T12:40:30.375Z,4.19
2022-12-14T12:43:26.849Z,4.54
2022-12-14T12:45:59.852Z,3.79
2022-12-14T12:48:32.743Z,3.60
2022-12-14T12:51:15.148Z,2.63
2022-12-14T12:53:48.234Z,2.63
2022-12-14T12:56:23.668Z,2.68
2022-12-14T12:58:54.437Z,2.59
2022-12-14T13:01:39.013Z,2.28
2022-12-14T13:04:11.511Z,2.28
2022-12-14T13:06:44.275Z,2.63
2022-12-14T13:09:28.374Z,2.96
2022-12-14T13:11:59.436Z,3.08
2022-12-14T13:14:34.782Z,3.41
2022-12-14T13:17:07.423Z,3.60
2022-12-14T13:19:52.485Z,4.29
2022-12-14T13:22:17.302Z,4.80
2022-12-14T13:24:55.548Z,4.13
2022-12-14T13:27:41.931Z,3.88
2022-12-14T13:30:28.563Z,4.25
2022-12-14T13:33:09.639Z,3.72
2022-12-14T13:35:48.119Z,4.46
2022-12-14T13:38:43.192Z,4.37
2022-12-14T13:41:36.701Z,4.20
2022-12-14T13:44:41.947Z,3.43
2022-12-14T13:47:09.276Z,3.38
2022-12-14T13:49:39.699Z,3.28
2022-12-14T13:52:13.764Z,3.14
2022-12-14T13:54:43.612Z,2.65
2022-12-14T13:57:17.438Z,2.65
2022-12-14T13:59:52.515Z,2.67
2022-12-14T14:02:34.086Z,2.89
2022-12-14T14:05:24.081Z,2.90
2022-12-14T14:08:04.900Z,2.80
2022-12-14T14:10:39.773Z,2.57
2022-12-14T14:13:30.411Z,2.53
2022-12-14T14:16:27.433Z,2.63
2022-12-14T14:18:37.919Z,2.42
2022-12-14T14:21:31.523Z,2.40
2022-12-14T14:24:04.440Z,2.11
2022-12-14T14:26:37.393Z,2.33
2022-12-14T14:29:29.723Z,2.02
2022-12-14T14:32:02.600Z,2.29
2022-12-14T14:34:37.924Z,1.99
2022-12-14T14:37:25.867Z,2.05
2022-12-14T14:40:22.143Z,1.97
2022-12-14T14:43:09.864Z,1.94
2022-12-14T14:45:45.971Z,1.59
2022-12-14T14:48:21.994Z,1.47
2022-12-14T14:50:55.251Z,1.23
2022-12-14T14:53:39.090Z,0.71
2022-12-14T14:56:36.858Z,0.94
2022-12-14T14:59:21.413Z,0.80
2022-12-14T15:01:58.146Z,0.77
2022-12-14T15:04:39.217Z,0.68
2022-12-14T15:07:11.822Z,0.70
2022-12-14T15:09:53.306Z,0.51
2022-12-14T15:12:31.655Z,0.47
2022-12-14T15:15:16.598Z,0.45
2022-12-14T15:17:47.176Z,0.28
2022-12-14T15:20:24.411Z,0.11
2022-12-14T15:22:55.950Z,0.05
2022-12-14T15:25:28.551Z,0.03
2022-12-14T15:28:05.169Z,-0.07
2022-12-14T15:30:36.455Z,0.03
2022-12-14T15:33:08.689Z,-0.24
2022-12-14T15:35:42.505Z,-0.31
2022-12-14T15:38:17.661Z,-0.28
2022-12-14T15:40:58.668Z,-0.38
2022-12-14T15:43:29.461Z,-0.46
2022-12-14T15:46:04.693Z,-0.70
2022-12-14T15:48:35.298Z,-0.81
2022-12-14T15:51:08.411Z,-1.07
2022-12-14T15:53:50.769Z,-0.92
2022-12-14T15:56:44.561Z,-0.88
2022-12-14T15:59:35.207Z,-0.88
2022-12-14T16:02:25.387Z,-0.97
2022-12-14T16:04:56.561Z,-0.99
2022-12-14T16:07:29.168Z,-1.09
2022-12-14T16:10:02.129Z,-1.20
2022-12-14T16:12:44.663Z,-1.15
2022-12-14T16:15:26.702Z,-1.22
2022-12-14T16:18:02.119Z,-1.39
2022-12-14T16:20:32.931Z,-1.36
2022-12-14T16:23:17.420Z,-1.63
2022-12-14T16:25:58.869Z,-1.46
2022-12-14T16:28:34.089Z,-1.52
2022-12-14T16:31:09.549Z,-1.52
2022-12-14T16:33:41.933Z,-1.53
2022-12-14T16:36:26.465Z,-1.54
2022-12-14T16:38:59.790Z,-1.85
2022-12-14T16:41:41.019Z,-1.85
2022-12-14T16:44:22.143Z,-1.75
2022-12-14T16:47:03.355Z,-1.86
2022-12-14T16:52:26.356Z,-1.99
2022-12-14T16:55:14.224Z,-1.94
2022-12-14T16:57:55.690Z,-1.93
2022-12-14T17:00:39.677Z,-2.33
2022-12-14T17:03:23.040Z,-2.16
2022-12-14T17:05:58.109Z,-2.38
2022-12-14T17:08:27.825Z,-2.36
2022-12-14T17:10:58.089Z,-2.38
2022-12-14T17:13:28.296Z,-2.62
2022-12-14T17:16:01.079Z,-2.60
2022-12-14T17:18:33.892Z,-2.53
2022-12-14T17:21:05.416Z,-2.66
2022-12-14T17:23:41.022Z,-2.66
2022-12-14T17:26:22.017Z,-2.86
2022-12-14T17:28:52.437Z,-2.89
2022-12-14T17:31:25.590Z,-2.93
2022-12-14T17:33:57.644Z,-2.53
2022-12-14T17:36:27.163Z,-2.57
2022-12-14T17:38:56.909Z,-2.94
2022-12-14T17:41:28.224Z,-2.79
2022-12-14T17:44:02.525Z,-2.80
2022-12-14T17:46:32.733Z,-3.07
2022-12-14T17:49:06.441Z,-3.05
2022-12-14T17:51:38.276Z,-3.17
2022-12-14T17:54:19.214Z,-3.21
2022-12-14T17:56:49.250Z,-3.21
2022-12-14T17:59:19.005Z,-3.09
2022-12-14T18:01:48.885Z,-3.29
2022-12-14T18:04:19.351Z,-3.29
2022-12-14T18:06:49.101Z,-3.32
2022-12-14T18:09:19.172Z,-3.36
2022-12-14T18:12:20.908Z,-3.33
2022-12-14T18:14:20.675Z,-3.35
2022-12-14T18:16:50.724Z,-3.35
2022-12-14T18:19:20.479Z,-3.54
2022-12-14T18:21:50.239Z,-3.54
2022-12-14T18:24:25.635Z,-3.27
2022-12-14T18:26:51.252Z,-3.55
2022-12-14T18:29:21.131Z,-3.58
2022-12-14T18:31:51.432Z,-3.59
2022-12-14T18:34:21.007Z,-3.65
2022-12-14T18:36:50.815Z,-3.59
2022-12-14T18:42:10.513Z,-3.64
2022-12-14T18:44:40.248Z,-3.48
2022-12-14T18:47:40.028Z,-3.58
2022-12-14T18:49:41.461Z,-3.29
2022-12-14T18:52:13.539Z,-3.49
2022-12-14T18:54:43.583Z,-3.65
2022-12-14T18:57:13.333Z,-3.73
2022-12-14T18:59:43.074Z,-3.83
2022-12-14T19:02:15.671Z,-3.83
2022-12-14T19:04:49.534Z,-3.84
2022-12-14T19:07:19.595Z,-3.87
2022-12-14T19:09:49.424Z,-3.69
2022-12-14T19:12:19.501Z,-3.74
2022-12-14T19:14:50.417Z,-3.97
2022-12-14T19:17:20.166Z,-3.96
2022-12-14T19:19:49.898Z,-3.97
2022-12-14T19:22:20.512Z,-4.01
2022-12-14T19:24:52.589Z,-3.85
2022-12-14T19:27:42.698Z,-3.88
2022-12-14T19:29:53.446Z,-3.98
2022-12-14T19:32:24.707Z,-4.04
2022-12-14T19:34:54.907Z,-4.03
2022-12-14T19:37:24.657Z,-3.94
2022-12-14T19:39:54.965Z,-4.03
2022-12-14T19:42:24.441Z,-3.84
2022-12-14T19:44:54.185Z,-4.04
2022-12-14T19:47:23.947Z,-4.13
2022-12-14T19:49:53.672Z,-4.10
2022-12-14T19:52:23.224Z,-4.07
2022-12-14T19:54:53.034Z,-4.17
2022-12-14T19:57:22.845Z,-4.21
2022-12-14T19:59:53.926Z,-4.12
2022-12-14T20:02:23.844Z,-4.21
2022-12-14T20:04:53.676Z,-4.20
2022-12-14T20:07:23.437Z,-4.23
2022-12-14T20:09:53.176Z,-4.30
2022-12-14T20:12:22.920Z,-4.06
2022-12-14T20:14:52.730Z,-4.06
2022-12-14T20:17:22.479Z,-4.16
2022-12-14T20:19:52.512Z,-4.36
2022-12-14T20:22:21.958Z,-4.36
2022-12-14T20:24:51.711Z,-4.45
2022-12-14T20:27:21.768Z,-4.19
2022-12-14T20:29:51.398Z,-4.39
2022-12-14T20:32:21.466Z,-4.10
2022-12-14T20:34:51.233Z,-3.95
2022-12-14T20:37:20.984Z,-4.35
2022-12-14T20:39:50.717Z,-4.35
2022-12-14T20:42:20.169Z,-4.19
2022-12-14T20:44:49.904Z,-4.10
2022-12-14T20:47:19.746Z,-4.33
2022-12-14T20:49:49.540Z,-4.26
2022-12-14T20:52:19.007Z,-4.25
2022-12-14T20:54:50.740Z,-4.43
2022-12-14T20:57:20.768Z,-4.10
2022-12-14T20:59:50.506Z,-4.02
2022-12-14T21:02:21.625Z,-4.00
2022-12-14T21:04:51.582Z,-4.27
2022-12-14T21:07:25.895Z,-4.35
2022-12-14T21:09:52.834Z,-4.44
2022-12-14T21:12:22.283Z,-4.44
2022-12-14T21:14:53.955Z,-4.23
2022-12-14T21:17:26.197Z,-4.37
2022-12-14T21:19:56.011Z,-4.29
2022-12-14T21:22:30.197Z,-4.15
2022-12-14T21:25:03.727Z,-4.34
2022-12-14T21:27:31.257Z,-4.24
2022-12-14T21:30:01.786Z,-4.14
2022-12-14T21:32:31.808Z,-4.40
2022-12-14T21:35:01.592Z,-4.23
2022-12-14T21:37:31.652Z,-4.33
2022-12-14T21:40:03.574Z,-4.55
2022-12-14T21:42:33.595Z,-4.39
2022-12-14T21:45:04.799Z,-4.25
2022-12-14T21:47:35.208Z,-4.46
2022-12-14T21:50:06.828Z,-4.17
2022-12-14T21:52:36.801Z,-4.13
2022-12-14T21:55:09.279Z,-4.25
2022-12-14T21:57:57.192Z,-4.30
2022-12-14T22:00:26.728Z,-4.39
2022-12-14T22:02:56.628Z,-4.27
2022-12-14T22:05:26.185Z,-4.38
2022-12-14T22:07:55.930Z,-4.58
2022-12-14T22:10:25.665Z,-4.58
2022-12-14T22:12:55.156Z,-4.27
2022-12-14T22:15:24.886Z,-4.20
2022-12-14T22:17:54.628Z,-4.21
2022-12-14T22:20:24.686Z,-4.22
2022-12-14T22:22:54.732Z,-4.09
2022-12-14T22:25:24.549Z,-4.29
2022-12-14T22:27:54.659Z,-4.29
2022-12-14T22:30:29.920Z,-4.13
2022-12-14T22:32:55.670Z,-4.21
2022-12-14T22:35:25.123Z,-4.29
2022-12-14T22:37:55.131Z,-4.20
2022-12-14T22:40:24.618Z,-4.21
2022-12-14T22:42:55.634Z,-4.12
2022-12-14T22:45:26.591Z,-4.05
2022-12-14T22:47:56.896Z,-4.25
2022-12-14T22:50:26.529Z,-4.06
2022-12-14T22:52:56.567Z,-4.10
2022-12-14T22:55:28.402Z,-4.10
2022-12-14T22:57:58.677Z,-4.37
2022-12-14T23:00:28.123Z,-4.28
2022-12-14T23:02:58.052Z,-4.23
2022-12-14T23:05:28.034Z,-4.15
2022-12-14T23:07:57.762Z,-4.16
2022-12-14T23:10:45.144Z,-4.09
2022-12-14T23:13:34.292Z,-4.25
2022-12-14T23:16:24.260Z,-4.13
2022-12-14T23:19:11.956Z,-4.18
2022-12-14T23:21:59.020Z,-4.16
2022-12-14T23:24:46.437Z,-4.10
2022-12-14T23:27:33.764Z,-4.21
2022-12-14T23:30:21.222Z,-4.18
2022-12-14T23:33:08.515Z,-4.26
2022-12-14T23:35:55.662Z,-4.23
2022-12-14T23:38:42.876Z,-4.32
2022-12-14T23:41:29.993Z,-4.26
2022-12-14T23:44:17.063Z,-4.36
2022-12-14T23:47:04.234Z,-4.28
2022-12-14T23:49:51.552Z,-4.33
2022-12-14T23:52:38.789Z,-4.15
2022-12-14T23:55:27.021Z,-4.15
2022-12-14T23:58:16.104Z,-4.18
